createdAt,value
2022-10-21T00:00:36.339Z,10.65
2022-10-21T00:02:41.809Z,10.66
2022-10-21T00:03:44.384Z,10.61
2022-10-21T00:04:52.471Z,10.63
2022-10-21T00:05:55.695Z,10.64
2022-10-21T00:06:58.139Z,10.63
2022-10-21T00:08:03.481Z,10.63
2022-10-21T00:09:06.014Z,10.64
2022-10-21T00:10:09.194Z,10.64
2022-10-21T00:11:11.544Z,10.65
2022-10-21T00:12:16.804Z,10.65
2022-10-21T00:13:19.266Z,10.65
2022-10-21T00:14:21.468Z,10.65
2022-10-21T00:15:23.913Z,10.65
2022-10-21T00:16:26.082Z,10.64
2022-10-21T00:17:31.222Z,10.63
2022-10-21T00:18:35.670Z,10.63
2022-10-21T00:19:40.111Z,10.65
2022-10-21T00:20:42.387Z,10.65
2022-10-21T00:21:44.613Z,10.59
2022-10-21T00:22:46.853Z,10.56
2022-10-21T00:23:52.936Z,10.57
2022-10-21T00:24:55.219Z,10.57
2022-10-21T00:26:01.214Z,10.58
2022-10-21T00:27:03.864Z,10.58
2022-10-21T00:28:06.098Z,10.58
2022-10-21T00:29:08.376Z,10.59
2022-10-21T00:30:12.329Z,10.60
2022-10-21T00:31:16.111Z,10.59
2022-10-21T00:32:18.656Z,10.59
2022-10-21T00:33:21.381Z,10.58
2022-10-21T00:34:28.237Z,10.58
2022-10-21T00:35:34.268Z,10.57
2022-10-21T00:36:36.514Z,10.56
2022-10-21T00:37:38.903Z,10.54
2022-10-21T00:38:43.340Z,10.52
2022-10-21T00:39:45.616Z,10.52
2022-10-21T00:40:47.973Z,10.50
2022-10-21T00:41:50.203Z,10.49
2022-10-21T00:42:52.409Z,10.48
2022-10-21T00:43:59.620Z,10.49
2022-10-21T00:45:26.349Z,10.46
2022-10-21T00:46:36.380Z,10.45
2022-10-21T00:47:53.878Z,10.48
2022-10-21T00:48:59.515Z,10.47
2022-10-21T00:50:04.361Z,10.48
2022-10-21T00:51:09.454Z,10.47
2022-10-21T00:52:16.563Z,10.45
2022-10-21T00:53:18.865Z,10.45
2022-10-21T00:54:25.619Z,10.44
2022-10-21T00:55:32.638Z,10.40
2022-10-21T00:56:37.230Z,10.39
2022-10-21T00:57:40.092Z,10.37
2022-10-21T00:58:42.886Z,10.35
2022-10-21T00:59:50.597Z,10.35
2022-10-21T01:00:56.227Z,10.36
2022-10-21T01:01:58.601Z,10.34
2022-10-21T01:03:00.884Z,10.34
2022-10-21T01:04:04.292Z,10.33
2022-10-21T01:05:10.071Z,10.31
2022-10-21T01:06:13.681Z,10.32
2022-10-21T01:07:16.074Z,10.31
2022-10-21T01:08:19.496Z,10.32
2022-10-21T01:09:22.601Z,10.30
2022-10-21T01:10:24.850Z,10.31
2022-10-21T01:11:28.055Z,10.28
2022-10-21T01:12:48.679Z,10.28
2022-10-21T01:14:03.128Z,10.25
2022-10-21T01:15:26.559Z,10.23
2022-10-21T01:16:32.831Z,10.20
2022-10-21T01:17:45.104Z,10.18
2022-10-21T01:18:59.160Z,10.20
2022-10-21T01:20:19.764Z,10.15
2022-10-21T01:21:41.856Z,10.15
2022-10-21T01:23:08.723Z,10.12
2022-10-21T01:25:00.187Z,10.06
2022-10-21T01:26:21.125Z,10.06
2022-10-21T01:27:55.158Z,10.02
2022-10-21T01:29:25.196Z,10.02
2022-10-21T01:30:41.007Z,10.05
2022-10-21T01:31:44.988Z,10.04
2022-10-21T01:33:20.174Z,10.02
2022-10-21T01:34:58.105Z,10.01
2022-10-21T01:36:16.242Z,10.04
2022-10-21T01:37:40.319Z,10.03
2022-10-21T01:39:11.247Z,10.02
2022-10-21T01:40:45.687Z,9.99
2022-10-21T01:41:56.655Z,9.98
2022-10-21T01:43:08.974Z,9.97
2022-10-21T01:44:34.425Z,9.99
2022-10-21T01:46:02.321Z,9.97
2022-10-21T01:47:16.335Z,9.94
2022-10-21T01:48:23.731Z,9.94
2022-10-21T01:49:38.432Z,9.94
2022-10-21T01:50:47.786Z,9.93
2022-10-21T01:51:51.685Z,9.92
2022-10-21T01:53:00.131Z,9.92
2022-10-21T01:54:09.932Z,9.92
2022-10-21T01:55:19.099Z,9.91
2022-10-21T01:56:22.519Z,9.88
2022-10-21T01:57:29.915Z,9.89
2022-10-21T01:58:36.902Z,9.91
2022-10-21T01:59:42.674Z,9.90
2022-10-21T02:00:46.963Z,9.90
2022-10-21T02:01:50.347Z,9.91
2022-10-21T02:02:52.773Z,9.93
2022-10-21T02:03:59.123Z,9.92
2022-10-21T02:05:08.344Z,9.91
2022-10-21T02:06:12.675Z,9.92
2022-10-21T02:07:15.007Z,9.92
2022-10-21T02:08:17.437Z,9.92
2022-10-21T02:09:20.312Z,9.91
2022-10-21T02:10:25.612Z,9.91
2022-10-21T02:11:29.770Z,9.91
2022-10-21T02:12:36.198Z,9.93
2022-10-21T02:13:45.672Z,9.92
2022-10-21T02:14:51.255Z,9.90
2022-10-21T02:15:57.340Z,9.91
2022-10-21T02:17:00.484Z,9.91
2022-10-21T02:18:08.753Z,9.91
2022-10-21T02:19:16.166Z,9.88
2022-10-21T02:20:19.244Z,9.90
2022-10-21T02:21:25.510Z,9.90
2022-10-21T02:22:31.518Z,9.92
2022-10-21T02:23:36.469Z,9.93
2022-10-21T02:24:57.313Z,9.93
2022-10-21T02:25:59.774Z,9.96
2022-10-21T02:27:02.043Z,9.92
2022-10-21T02:28:04.958Z,9.93
2022-10-21T02:29:07.533Z,9.94
2022-10-21T02:30:10.357Z,9.96
2022-10-21T02:31:57.604Z,9.98
2022-10-21T02:33:09.084Z,9.98
2022-10-21T02:34:27.388Z,9.99
2022-10-21T02:35:44.143Z,9.96
2022-10-21T02:36:56.929Z,9.97
2022-10-21T02:38:06.515Z,9.96
2022-10-21T02:39:49.266Z,9.97
2022-10-21T02:40:59.460Z,9.97
2022-10-21T02:42:07.439Z,9.98
2022-10-21T02:43:19.788Z,9.97
2022-10-21T02:44:24.011Z,9.96
2022-10-21T02:45:28.378Z,9.96
2022-10-21T02:46:39.511Z,9.93
2022-10-21T02:47:44.919Z,9.94
2022-10-21T02:48:48.365Z,9.94
2022-10-21T02:49:50.587Z,9.93
2022-10-21T02:50:53.311Z,9.93
2022-10-21T02:51:55.750Z,9.92
2022-10-21T02:52:58.139Z,9.92
2022-10-21T02:54:00.582Z,9.90
2022-10-21T02:55:02.890Z,9.90
2022-10-21T02:56:05.344Z,9.91
2022-10-21T02:57:07.586Z,9.93
2022-10-21T02:58:09.762Z,9.93
2022-10-21T02:59:11.974Z,9.93
2022-10-21T03:00:14.916Z,9.92
2022-10-21T03:01:17.164Z,9.91
2022-10-21T03:02:19.775Z,9.92
2022-10-21T03:03:22.310Z,9.94
2022-10-21T03:04:24.572Z,9.95
2022-10-21T03:05:26.932Z,9.91
2022-10-21T03:06:29.229Z,9.91
2022-10-21T03:07:31.490Z,9.94
2022-10-21T03:08:33.851Z,9.91
2022-10-21T03:09:36.066Z,9.93
2022-10-21T03:10:38.327Z,9.95
2022-10-21T03:11:40.506Z,9.96
2022-10-21T03:12:42.774Z,9.97
2022-10-21T03:13:44.978Z,9.97
2022-10-21T03:14:47.165Z,9.96
2022-10-21T03:15:51.283Z,9.96
2022-10-21T03:16:53.469Z,9.96
2022-10-21T03:17:55.803Z,9.98
2022-10-21T03:18:58.107Z,9.98
2022-10-21T03:20:00.266Z,9.99
2022-10-21T03:21:02.441Z,9.99
2022-10-21T03:22:04.742Z,10.02
2022-10-21T03:23:10.046Z,10.04
2022-10-21T03:24:19.849Z,10.04
2022-10-21T03:25:35.073Z,10.07
2022-10-21T03:26:37.830Z,10.08
2022-10-21T03:27:40.152Z,10.08
2022-10-21T03:28:42.476Z,10.08
2022-10-21T03:29:44.660Z,10.08
2022-10-21T03:30:46.837Z,10.04
2022-10-21T03:31:49.140Z,10.08
2022-10-21T03:32:51.398Z,10.07
2022-10-21T03:33:53.600Z,10.10
2022-10-21T03:34:55.845Z,10.09
2022-10-21T03:35:58.042Z,10.10
2022-10-21T03:37:00.331Z,10.10
2022-10-21T03:38:03.052Z,10.14
2022-10-21T03:39:05.304Z,10.10
2022-10-21T03:40:11.457Z,10.11
2022-10-21T03:41:14.700Z,10.09
2022-10-21T03:42:16.931Z,10.10
2022-10-21T03:43:19.171Z,10.09
2022-10-21T03:44:21.370Z,10.11
2022-10-21T03:45:26.587Z,10.11
2022-10-21T03:46:28.762Z,10.10
2022-10-21T03:47:30.920Z,10.09
2022-10-21T03:48:33.265Z,10.09
2022-10-21T03:50:58.066Z,10.10
2022-10-21T03:52:02.783Z,10.07
2022-10-21T03:53:13.848Z,10.03
2022-10-21T03:54:21.086Z,10.02
2022-10-21T03:55:25.299Z,10.04
2022-10-21T03:56:27.495Z,10.04
2022-10-21T03:57:29.815Z,10.02
2022-10-21T03:58:35.413Z,10.00
2022-10-21T03:59:37.605Z,10.03
2022-10-21T04:00:39.809Z,10.00
2022-10-21T04:01:42.113Z,9.97
2022-10-21T04:02:45.517Z,9.98
2022-10-21T04:03:47.710Z,9.98
2022-10-21T04:04:50.090Z,9.98
2022-10-21T04:05:52.384Z,9.99
2022-10-21T04:06:54.583Z,9.97
2022-10-21T04:07:56.824Z,9.97
2022-10-21T04:08:59.111Z,9.98
2022-10-21T04:10:01.415Z,9.98
2022-10-21T04:11:03.646Z,9.96
2022-10-21T04:12:05.908Z,9.96
2022-10-21T04:13:08.162Z,9.91
2022-10-21T04:14:14.567Z,9.90
2022-10-21T04:15:21.245Z,9.89
2022-10-21T04:16:23.644Z,9.86
2022-10-21T04:17:26.547Z,9.86
2022-10-21T04:18:29.447Z,9.87
2022-10-21T04:19:31.725Z,9.82
2022-10-21T04:20:33.950Z,9.84
2022-10-21T04:21:36.218Z,9.83
2022-10-21T04:22:38.829Z,9.82
2022-10-21T04:23:41.530Z,9.81
2022-10-21T04:24:43.781Z,9.80
2022-10-21T04:25:46.507Z,9.80
2022-10-21T04:26:48.745Z,9.79
2022-10-21T04:27:50.936Z,9.79
2022-10-21T04:28:53.100Z,9.80
2022-10-21T04:29:55.353Z,9.78
2022-10-21T04:30:57.581Z,9.77
2022-10-21T04:31:59.836Z,9.78
2022-10-21T04:33:02.083Z,9.76
2022-10-21T04:34:04.424Z,9.72
2022-10-21T04:35:07.049Z,9.70
2022-10-21T04:36:09.320Z,9.70
2022-10-21T04:37:14.765Z,9.65
2022-10-21T04:38:17.343Z,9.63
2022-10-21T04:39:22.127Z,9.62
2022-10-21T04:40:24.385Z,9.63
2022-10-21T04:41:26.672Z,9.63
2022-10-21T04:43:51.078Z,9.66
2022-10-21T04:44:53.426Z,9.67
2022-10-21T04:45:55.892Z,9.66
2022-10-21T04:46:58.266Z,9.65
2022-10-21T04:48:07.981Z,9.63
2022-10-21T04:49:10.329Z,9.63
2022-10-21T04:50:14.818Z,9.62
2022-10-21T04:51:17.220Z,9.61
2022-10-21T04:52:19.478Z,9.58
2022-10-21T04:53:23.244Z,9.58
2022-10-21T04:54:25.515Z,9.57
2022-10-21T04:55:28.112Z,9.56
2022-10-21T04:56:30.624Z,9.53
2022-10-21T04:57:33.169Z,9.54
2022-10-21T04:58:35.377Z,9.57
2022-10-21T04:59:37.546Z,9.57
2022-10-21T05:00:39.799Z,9.56
2022-10-21T05:01:42.048Z,9.56
2022-10-21T05:02:44.320Z,9.56
2022-10-21T05:03:46.549Z,9.57
2022-10-21T05:04:48.986Z,9.58
2022-10-21T05:05:52.254Z,9.59
2022-10-21T05:06:54.467Z,9.58
2022-10-21T05:07:56.667Z,9.56
2022-10-21T05:08:59.041Z,9.55
2022-10-21T05:10:02.457Z,9.53
2022-10-21T05:11:04.786Z,9.52
2022-10-21T05:12:07.013Z,9.52
2022-10-21T05:13:09.292Z,9.51
2022-10-21T05:14:11.512Z,9.52
2022-10-21T05:15:14.716Z,9.53
2022-10-21T05:16:16.932Z,9.53
2022-10-21T05:17:19.120Z,9.55
2022-10-21T05:18:21.347Z,9.52
2022-10-21T05:19:27.665Z,9.52
2022-10-21T05:20:32.537Z,9.52
2022-10-21T05:21:34.750Z,9.51
2022-10-21T05:22:37.618Z,9.53
2022-10-21T05:23:40.099Z,9.53
2022-10-21T05:24:42.269Z,9.49
2022-10-21T05:25:45.876Z,9.50
2022-10-21T05:26:48.152Z,9.50
2022-10-21T05:27:50.320Z,9.50
2022-10-21T05:28:52.855Z,9.50
2022-10-21T05:29:55.120Z,9.48
2022-10-21T05:30:59.655Z,9.48
2022-10-21T05:32:01.951Z,9.46
2022-10-21T05:33:04.662Z,9.48
2022-10-21T05:34:07.006Z,9.47
2022-10-21T05:35:09.350Z,9.49
2022-10-21T05:36:11.551Z,9.47
2022-10-21T05:37:14.885Z,9.44
2022-10-21T05:38:17.110Z,9.43
2022-10-21T05:39:19.385Z,9.46
2022-10-21T05:40:21.880Z,9.46
2022-10-21T05:41:27.092Z,9.43
2022-10-21T05:42:29.305Z,9.44
2022-10-21T05:43:31.691Z,9.43
2022-10-21T05:44:33.903Z,9.45
2022-10-21T05:45:36.157Z,9.44
2022-10-21T05:46:38.369Z,9.43
2022-10-21T05:47:41.352Z,9.41
2022-10-21T05:48:43.639Z,9.40
2022-10-21T05:49:45.869Z,9.41
2022-10-21T05:50:52.488Z,9.37
2022-10-21T05:51:54.678Z,9.39
2022-10-21T05:52:58.705Z,9.39
2022-10-21T05:54:03.018Z,9.36
2022-10-21T05:55:06.376Z,9.36
2022-10-21T05:56:08.967Z,9.36
2022-10-21T05:57:13.572Z,9.36
2022-10-21T05:58:15.837Z,9.36
2022-10-21T05:59:18.078Z,9.36
2022-10-21T06:00:20.496Z,9.37
2022-10-21T06:01:23.185Z,9.36
2022-10-21T06:02:25.603Z,9.36
2022-10-21T06:03:31.493Z,9.36
2022-10-21T06:04:37.903Z,9.39
2022-10-21T06:05:41.125Z,9.37
2022-10-21T06:06:43.399Z,9.37
2022-10-21T06:07:45.671Z,9.36
2022-10-21T06:08:47.904Z,9.38
2022-10-21T06:09:50.245Z,9.38
2022-10-21T06:11:06.481Z,9.38
2022-10-21T06:12:08.809Z,9.35
2022-10-21T06:13:11.080Z,9.36
2022-10-21T06:14:13.460Z,9.38
2022-10-21T06:15:17.293Z,9.37
2022-10-21T06:16:19.638Z,9.40
2022-10-21T06:17:22.419Z,9.41
2022-10-21T06:18:25.526Z,9.40
2022-10-21T06:19:27.751Z,9.40
2022-10-21T06:20:30.156Z,9.40
2022-10-21T06:21:32.451Z,9.40
2022-10-21T06:22:34.750Z,9.40
2022-10-21T06:23:37.037Z,9.38
2022-10-21T06:24:39.270Z,9.40
2022-10-21T06:25:41.599Z,9.40
2022-10-21T06:26:43.914Z,9.40
2022-10-21T06:27:46.228Z,9.41
2022-10-21T06:28:48.484Z,9.39
2022-10-21T06:29:51.439Z,9.41
2022-10-21T06:30:53.704Z,9.42
2022-10-21T06:31:55.979Z,9.43
2022-10-21T06:32:58.247Z,9.44
2022-10-21T06:34:00.447Z,9.47
2022-10-21T06:35:02.833Z,9.49
2022-10-21T06:36:05.597Z,9.46
2022-10-21T06:37:07.883Z,9.45
2022-10-21T06:38:10.120Z,9.48
2022-10-21T06:39:12.344Z,9.50
2022-10-21T06:40:14.627Z,9.49
2022-10-21T06:41:18.602Z,9.51
2022-10-21T06:42:20.830Z,9.52
2022-10-21T06:44:45.385Z,9.55
2022-10-21T06:45:47.640Z,9.60
2022-10-21T06:46:49.852Z,9.63
2022-10-21T06:47:52.037Z,9.65
2022-10-21T06:48:54.602Z,9.63
2022-10-21T06:49:56.930Z,9.65
2022-10-21T06:51:05.193Z,9.67
2022-10-21T06:52:07.398Z,9.70
2022-10-21T06:53:09.712Z,9.72
2022-10-21T06:54:11.954Z,9.75
2022-10-21T06:55:14.350Z,9.76
2022-10-21T06:56:18.577Z,9.78
2022-10-21T06:57:20.805Z,9.81
2022-10-21T06:58:23.133Z,9.85
2022-10-21T06:59:25.411Z,9.85
2022-10-21T07:02:06.108Z,9.90
2022-10-21T07:03:08.524Z,9.97
2022-10-21T07:04:11.058Z,10.01
2022-10-21T07:05:13.377Z,10.04
2022-10-21T07:06:16.359Z,10.08
2022-10-21T07:07:19.447Z,10.12
2022-10-21T07:08:22.590Z,10.14
2022-10-21T07:09:36.629Z,10.16
2022-10-21T07:10:38.874Z,10.22
2022-10-21T07:11:41.317Z,10.26
2022-10-21T07:12:43.730Z,10.32
2022-10-21T07:13:48.323Z,10.36
2022-10-21T07:14:50.643Z,10.42
2022-10-21T07:16:10.409Z,10.47
2022-10-21T07:17:12.682Z,10.53
2022-10-21T07:18:14.965Z,10.60
2022-10-21T07:19:17.162Z,10.66
2022-10-21T07:20:19.359Z,10.69
2022-10-21T07:21:24.573Z,10.75
2022-10-21T07:22:26.861Z,10.75
2022-10-21T07:23:31.677Z,10.80
2022-10-21T07:24:34.023Z,10.83
2022-10-21T07:25:36.988Z,10.89
2022-10-21T07:26:39.928Z,10.93
2022-10-21T07:27:47.604Z,10.95
2022-10-21T07:28:52.421Z,11.00
2022-10-21T07:29:54.755Z,11.03
2022-10-21T07:30:57.003Z,11.04
2022-10-21T07:31:59.374Z,11.09
2022-10-21T07:33:03.809Z,11.10
2022-10-21T07:34:08.316Z,11.12
2022-10-21T07:35:10.583Z,11.14
2022-10-21T07:36:18.962Z,11.15
2022-10-21T07:37:21.298Z,11.16
2022-10-21T07:38:24.539Z,11.16
2022-10-21T07:39:27.711Z,11.16
2022-10-21T07:40:30.630Z,11.15
2022-10-21T07:41:37.783Z,11.16
2022-10-21T07:42:39.990Z,11.13
2022-10-21T07:43:42.280Z,11.10
2022-10-21T07:44:45.280Z,11.14
2022-10-21T07:45:47.573Z,11.16
2022-10-21T07:46:50.577Z,11.16
2022-10-21T07:47:52.826Z,11.17
2022-10-21T07:48:55.824Z,11.15
2022-10-21T07:49:58.027Z,11.14
2022-10-21T07:51:06.285Z,11.15
2022-10-21T07:52:08.537Z,11.13
2022-10-21T07:53:12.756Z,11.14
2022-10-21T07:54:16.183Z,11.13
2022-10-21T07:55:18.586Z,11.14
2022-10-21T07:56:24.306Z,11.10
2022-10-21T07:57:26.527Z,11.10
2022-10-21T07:58:29.717Z,11.11
2022-10-21T07:59:31.928Z,11.12
2022-10-21T08:00:34.165Z,11.13
2022-10-21T08:01:36.501Z,11.09
2022-10-21T08:02:40.206Z,11.04
2022-10-21T08:03:42.805Z,11.05
2022-10-21T08:04:45.078Z,11.04
2022-10-21T08:05:47.264Z,11.06
2022-10-21T08:06:50.338Z,11.06
2022-10-21T08:07:52.583Z,11.07
2022-10-21T08:08:59.968Z,11.08
2022-10-21T08:10:04.147Z,11.10
2022-10-21T08:11:07.344Z,11.09
2022-10-21T08:12:12.939Z,11.07
2022-10-21T08:13:17.868Z,11.08
2022-10-21T08:14:20.088Z,11.11
2022-10-21T08:15:22.302Z,11.12
2022-10-21T08:16:25.706Z,11.12
2022-10-21T08:17:28.026Z,11.15
2022-10-21T08:18:30.351Z,11.17
2022-10-21T08:19:32.795Z,11.18
2022-10-21T08:20:39.028Z,11.19
2022-10-21T08:21:41.189Z,11.21
2022-10-21T08:22:43.440Z,11.22
2022-10-21T08:23:45.972Z,11.23
2022-10-21T08:24:48.244Z,11.22
2022-10-21T08:25:53.311Z,11.24
2022-10-21T08:26:55.714Z,11.23
2022-10-21T08:27:57.990Z,11.24
2022-10-21T08:29:01.840Z,11.25
2022-10-21T08:30:04.479Z,11.26
2022-10-21T08:31:09.617Z,11.30
2022-10-21T08:32:11.864Z,11.33
2022-10-21T08:33:14.905Z,11.34
2022-10-21T08:34:17.398Z,11.38
2022-10-21T08:35:19.560Z,11.40
2022-10-21T08:36:25.212Z,11.41
2022-10-21T08:37:27.498Z,11.45
2022-10-21T08:38:29.699Z,11.47
2022-10-21T08:39:31.919Z,11.52
2022-10-21T08:40:54.966Z,11.58
2022-10-21T08:42:01.098Z,11.64
2022-10-21T08:43:17.221Z,11.64
2022-10-21T08:44:35.777Z,11.68
2022-10-21T08:46:02.949Z,11.72
2022-10-21T08:47:20.061Z,11.75
2022-10-21T08:48:29.618Z,11.80
2022-10-21T08:49:45.638Z,11.85
2022-10-21T08:50:51.030Z,11.89
2022-10-21T08:52:03.507Z,11.87
2022-10-21T08:53:18.294Z,11.89
2022-10-21T08:54:40.249Z,11.96
2022-10-21T08:55:44.786Z,12.01
2022-10-21T08:56:50.555Z,12.05
2022-10-21T08:57:56.088Z,12.09
2022-10-21T08:58:58.746Z,12.16
2022-10-21T09:00:01.052Z,12.22
2022-10-21T09:01:13.934Z,12.27
2022-10-21T09:02:31.785Z,12.36
2022-10-21T09:04:07.770Z,12.43
2022-10-21T09:05:30.666Z,12.52
2022-10-21T09:06:46.001Z,12.61
2022-10-21T09:08:10.040Z,12.67
2022-10-21T09:09:35.072Z,12.76
2022-10-21T09:10:49.235Z,12.82
2022-10-21T09:11:54.083Z,12.89
2022-10-21T09:13:04.342Z,12.96
2022-10-21T09:14:25.838Z,13.04
2022-10-21T09:15:56.625Z,13.13
2022-10-21T09:17:19.293Z,13.22
2022-10-21T09:18:59.588Z,13.28
2022-10-21T09:20:09.349Z,13.37
2022-10-21T09:21:29.344Z,13.45
2022-10-21T09:22:41.764Z,13.47
2022-10-21T09:23:49.785Z,13.52
2022-10-21T09:24:56.917Z,13.57
2022-10-21T09:26:07.704Z,13.61
2022-10-21T09:27:11.183Z,13.64
2022-10-21T09:28:17.909Z,13.69
2022-10-21T09:29:29.142Z,13.74
2022-10-21T09:30:31.424Z,13.80
2022-10-21T09:31:33.877Z,13.82
2022-10-21T09:32:41.061Z,13.89
2022-10-21T09:33:47.713Z,13.95
2022-10-21T09:34:58.006Z,13.97
2022-10-21T09:36:05.826Z,13.99
2022-10-21T09:37:19.626Z,13.99
2022-10-21T09:38:27.720Z,13.99
2022-10-21T09:39:55.715Z,13.97
2022-10-21T09:41:03.429Z,13.96
2022-10-21T09:42:11.542Z,13.97
2022-10-21T09:43:24.416Z,13.95
2022-10-21T09:44:26.698Z,13.95
2022-10-21T09:45:40.296Z,13.95
2022-10-21T09:46:46.112Z,13.91
2022-10-21T09:47:55.997Z,13.92
2022-10-21T09:50:21.051Z,13.89
2022-10-21T09:51:33.971Z,13.90
2022-10-21T09:52:38.211Z,13.87
2022-10-21T09:53:55.620Z,13.88
2022-10-21T09:54:58.849Z,13.88
2022-10-21T09:56:26.242Z,13.88
2022-10-21T09:58:02.309Z,13.89
2022-10-21T09:59:11.664Z,13.89
2022-10-21T10:00:14.411Z,13.87
2022-10-21T10:01:23.878Z,13.86
2022-10-21T10:02:34.179Z,13.84
2022-10-21T10:03:46.044Z,13.85
2022-10-21T10:04:48.229Z,13.84
2022-10-21T10:05:50.541Z,13.83
2022-10-21T10:06:52.765Z,13.82
2022-10-21T10:07:55.004Z,13.81
2022-10-21T10:09:28.088Z,13.81
2022-10-21T10:10:34.254Z,13.83
2022-10-21T10:11:49.272Z,13.85
2022-10-21T10:12:59.403Z,13.87
2022-10-21T10:14:24.821Z,13.85
2022-10-21T10:15:37.388Z,13.83
2022-10-21T10:16:39.680Z,13.82
2022-10-21T10:17:41.951Z,13.79
2022-10-21T10:18:45.263Z,13.80
2022-10-21T10:20:09.142Z,13.78
2022-10-21T10:21:17.292Z,13.76
2022-10-21T10:22:19.482Z,13.75
2022-10-21T10:23:21.764Z,13.75
2022-10-21T10:24:23.974Z,13.73
2022-10-21T10:25:32.834Z,13.72
2022-10-21T10:26:42.515Z,13.69
2022-10-21T10:27:52.182Z,13.67
2022-10-21T10:28:59.220Z,13.69
2022-10-21T10:30:02.594Z,13.67
2022-10-21T10:31:05.068Z,13.62
2022-10-21T10:32:14.591Z,13.63
2022-10-21T10:33:24.958Z,13.64
2022-10-21T10:34:33.079Z,13.66
2022-10-21T10:35:37.890Z,13.66
2022-10-21T10:36:41.066Z,13.63
2022-10-21T10:37:47.981Z,13.61
2022-10-21T10:38:56.297Z,13.61
2022-10-21T10:40:00.968Z,13.57
2022-10-21T10:41:15.552Z,13.57
2022-10-21T10:42:26.074Z,13.57
2022-10-21T10:43:31.438Z,13.55
2022-10-21T10:44:43.008Z,13.53
2022-10-21T10:45:53.889Z,13.49
2022-10-21T10:46:58.487Z,13.49
2022-10-21T10:48:06.995Z,13.48
2022-10-21T10:49:13.066Z,13.45
2022-10-21T10:50:40.503Z,13.44
2022-10-21T10:51:46.500Z,13.42
2022-10-21T10:52:48.921Z,13.39
2022-10-21T10:54:07.729Z,13.40
2022-10-21T10:55:13.973Z,13.41
2022-10-21T10:56:26.116Z,13.41
2022-10-21T10:57:39.282Z,13.40
2022-10-21T10:59:15.293Z,13.40
2022-10-21T11:00:23.045Z,13.40
2022-10-21T11:01:31.446Z,13.40
2022-10-21T11:03:05.451Z,13.37
2022-10-21T11:04:21.351Z,13.38
2022-10-21T11:05:29.137Z,13.41
2022-10-21T11:06:42.540Z,13.42
2022-10-21T11:07:51.628Z,13.43
2022-10-21T11:08:59.926Z,13.45
2022-10-21T11:10:07.937Z,13.47
2022-10-21T11:11:26.110Z,13.49
2022-10-21T11:12:28.429Z,13.50
2022-10-21T11:13:34.031Z,13.52
2022-10-21T11:14:36.335Z,13.56
2022-10-21T11:16:03.729Z,13.59
2022-10-21T11:17:20.586Z,13.61
2022-10-21T11:18:32.693Z,13.66
2022-10-21T11:20:02.579Z,13.67
2022-10-21T11:21:19.873Z,13.72
2022-10-21T11:22:37.594Z,13.75
2022-10-21T11:23:57.652Z,13.80
2022-10-21T11:25:31.071Z,13.82
2022-10-21T11:27:19.160Z,13.88
2022-10-21T11:28:38.674Z,13.93
2022-10-21T11:30:11.878Z,13.98
2022-10-21T11:31:32.953Z,14.02
2022-10-21T11:33:00.304Z,14.05
2022-10-21T11:34:24.289Z,14.11
2022-10-21T11:35:35.707Z,14.14
2022-10-21T11:37:00.704Z,14.15
2022-10-21T11:38:22.539Z,14.18
2022-10-21T11:40:00.784Z,14.23
2022-10-21T11:41:32.808Z,14.24
2022-10-21T11:42:43.959Z,14.29
2022-10-21T11:44:20.225Z,14.32
2022-10-21T11:45:40.310Z,14.35
2022-10-21T11:47:11.435Z,14.33
2022-10-21T11:48:22.708Z,14.37
2022-10-21T11:49:38.992Z,14.38
2022-10-21T11:51:03.731Z,14.38
2022-10-21T11:52:37.207Z,14.40
2022-10-21T11:54:01.670Z,14.43
2022-10-21T11:55:25.715Z,14.43
2022-10-21T11:57:01.314Z,14.43
2022-10-21T11:58:24.606Z,14.44
2022-10-21T11:59:59.382Z,14.44
2022-10-21T12:01:08.440Z,14.46
2022-10-21T12:02:23.253Z,14.48
2022-10-21T12:03:51.645Z,14.49
2022-10-21T12:05:20.423Z,14.52
2022-10-21T12:06:40.975Z,14.54
2022-10-21T12:08:10.140Z,14.54
2022-10-21T12:09:16.413Z,14.55
2022-10-21T12:10:36.001Z,14.57
2022-10-21T12:11:44.581Z,14.56
2022-10-21T12:12:50.522Z,14.58
2022-10-21T12:13:57.896Z,14.56
2022-10-21T12:15:04.767Z,14.60
2022-10-21T12:16:14.368Z,14.62
2022-10-21T12:17:20.562Z,14.61
2022-10-21T12:18:24.513Z,14.62
2022-10-21T12:19:29.852Z,14.61
2022-10-21T12:20:35.293Z,14.63
2022-10-21T12:21:42.201Z,14.62
2022-10-21T12:22:44.628Z,14.66
2022-10-21T12:23:54.557Z,14.66
2022-10-21T12:25:34.045Z,14.65
2022-10-21T12:27:14.398Z,14.68
2022-10-21T12:28:22.497Z,14.65
2022-10-21T12:30:10.737Z,14.66
2022-10-21T12:31:27.783Z,14.66
2022-10-21T12:32:42.237Z,14.66
2022-10-21T12:33:48.021Z,14.66
2022-10-21T12:34:50.380Z,14.67
2022-10-21T12:35:57.034Z,14.68
2022-10-21T12:36:59.277Z,14.68
2022-10-21T12:38:01.437Z,14.69
2022-10-21T12:39:04.958Z,14.67
2022-10-21T12:40:13.393Z,14.66
2022-10-21T12:41:24.878Z,14.68
2022-10-21T12:42:29.644Z,14.67
2022-10-21T12:43:31.907Z,14.66
2022-10-21T12:44:36.652Z,14.63
2022-10-21T12:45:39.275Z,14.64
2022-10-21T12:46:49.366Z,14.63
2022-10-21T12:47:53.386Z,14.60
2022-10-21T12:48:56.854Z,14.62
2022-10-21T12:50:30.029Z,14.60
2022-10-21T12:51:36.320Z,14.58
2022-10-21T12:52:39.026Z,14.59
2022-10-21T12:53:56.501Z,14.56
2022-10-21T12:55:02.269Z,14.53
2022-10-21T12:56:05.866Z,14.48
2022-10-21T12:57:11.736Z,14.51
2022-10-21T12:58:25.491Z,14.47
2022-10-21T12:59:35.215Z,14.43
2022-10-21T13:00:43.621Z,14.42
2022-10-21T13:02:05.795Z,14.40
2022-10-21T13:03:17.213Z,14.38
2022-10-21T13:04:31.570Z,14.36
2022-10-21T13:05:36.783Z,14.33
2022-10-21T13:06:50.908Z,14.30
2022-10-21T13:08:27.356Z,14.27
2022-10-21T13:10:06.718Z,14.23
2022-10-21T13:11:08.839Z,14.21
2022-10-21T13:12:11.014Z,14.17
2022-10-21T13:13:29.861Z,14.13
2022-10-21T13:14:47.572Z,14.10
2022-10-21T13:15:49.753Z,14.04
2022-10-21T13:16:51.997Z,14.02
2022-10-21T13:17:56.764Z,13.99
2022-10-21T13:19:25.459Z,13.97
2022-10-21T13:20:34.094Z,13.93
2022-10-21T13:21:44.272Z,13.88
2022-10-21T13:23:24.966Z,13.84
2022-10-21T13:24:36.472Z,13.79
2022-10-21T13:25:38.807Z,13.76
2022-10-21T13:26:49.047Z,13.74
2022-10-21T13:28:05.846Z,13.69
2022-10-21T13:29:12.658Z,13.64
2022-10-21T13:30:38.943Z,13.55
2022-10-21T13:31:42.010Z,13.53
2022-10-21T13:32:46.490Z,13.49
2022-10-21T13:33:52.687Z,13.46
2022-10-21T13:34:59.010Z,13.41
2022-10-21T13:36:32.805Z,13.37
2022-10-21T13:37:39.431Z,13.34
2022-10-21T13:38:54.033Z,13.31
2022-10-21T13:39:59.966Z,13.28
2022-10-21T13:41:05.660Z,13.27
2022-10-21T13:42:16.864Z,13.20
2022-10-21T13:43:41.122Z,13.14
2022-10-21T13:44:50.931Z,13.11
2022-10-21T13:46:17.859Z,13.08
2022-10-21T13:47:35.440Z,13.05
2022-10-21T13:48:44.513Z,13.01
2022-10-21T13:50:10.734Z,12.96
2022-10-21T13:51:26.118Z,12.89
2022-10-21T13:52:30.252Z,12.84
2022-10-21T13:53:38.136Z,12.81
2022-10-21T13:54:40.383Z,12.79
2022-10-21T13:55:42.669Z,12.75
2022-10-21T13:56:44.901Z,12.71
2022-10-21T13:57:52.633Z,12.68
2022-10-21T13:58:55.481Z,12.62
2022-10-21T14:00:26.170Z,12.61
2022-10-21T14:01:43.689Z,12.58
2022-10-21T14:02:52.517Z,12.53
2022-10-21T14:04:10.898Z,12.49
2022-10-21T14:05:49.552Z,12.42
2022-10-21T14:06:58.716Z,12.37
2022-10-21T14:08:01.671Z,12.35
2022-10-21T14:09:08.267Z,12.31
2022-10-21T14:10:15.774Z,12.29
2022-10-21T14:11:33.379Z,12.26
2022-10-21T14:12:44.109Z,12.23
2022-10-21T14:13:48.283Z,12.19
2022-10-21T14:14:52.595Z,12.15
2022-10-21T14:15:55.727Z,12.11
2022-10-21T14:17:02.387Z,12.09
2022-10-21T14:18:05.475Z,12.07
2022-10-21T14:19:17.082Z,12.02
2022-10-21T14:20:34.029Z,11.98
2022-10-21T14:21:39.177Z,11.96
2022-10-21T14:22:41.955Z,11.96
2022-10-21T14:23:47.111Z,11.90
2022-10-21T14:24:56.837Z,11.86
2022-10-21T14:26:08.700Z,11.82
2022-10-21T14:27:14.603Z,11.79
2022-10-21T14:28:18.951Z,11.76
2022-10-21T14:29:26.055Z,11.73
2022-10-21T14:30:33.578Z,11.70
2022-10-21T14:31:36.175Z,11.68
2022-10-21T14:32:39.049Z,11.64
2022-10-21T14:33:45.587Z,11.63
2022-10-21T14:35:20.047Z,11.55
2022-10-21T14:36:26.039Z,11.53
2022-10-21T14:37:43.027Z,11.52
2022-10-21T14:39:00.600Z,11.52
2022-10-21T14:40:32.453Z,11.48
2022-10-21T14:41:37.423Z,11.44
2022-10-21T14:42:41.471Z,11.38
2022-10-21T14:43:46.487Z,11.38
2022-10-21T14:44:52.843Z,11.35
2022-10-21T14:45:55.503Z,11.33
2022-10-21T14:46:59.568Z,11.30
2022-10-21T14:48:10.051Z,11.26
2022-10-21T14:49:25.073Z,11.26
2022-10-21T14:50:27.586Z,11.25
2022-10-21T14:51:37.573Z,11.26
2022-10-21T14:52:44.477Z,11.23
2022-10-21T14:53:55.664Z,11.23
2022-10-21T14:55:02.071Z,11.23